sensor_id;sensor_type;location;lat;lon;timestamp;P1;durP1;ratioP1;P2;durP2;ratioP2
5137;SDS011;53959;53.626;11.410;2023-02-01T00:01:11;36.30;;;4.90;;
5137;SDS011;53959;53.626;11.410;2023-02-01T00:03:36;15.23;;;3.47;;
5137;SDS011;53959;53.626;11.410;2023-02-01T00:06:02;28.93;;;5.00;;
5137;SDS011;53959;53.626;11.410;2023-02-01T00:08:27;28.67;;;4.80;;
5137;SDS011;53959;53.626;11.410;2023-02-01T00:10:59;31.20;;;4.93;;
5137;SDS011;53959;53.626;11.410;2023-02-01T00:13:33;34.10;;;4.30;;
5137;SDS011;53959;53.626;11.410;2023-02-01T00:18:39;19.17;;;3.80;;
5137;SDS011;53959;53.626;11.410;2023-02-01T00:21:04;24.30;;;3.10;;
5137;SDS011;53959;53.626;11.410;2023-02-01T00:23:33;33.40;;;4.00;;
5137;SDS011;53959;53.626;11.410;2023-02-01T00:26:01;25.43;;;3.90;;
5137;SDS011;53959;53.626;11.410;2023-02-01T00:28:27;26.83;;;3.37;;
5137;SDS011;53959;53.626;11.410;2023-02-01T00:30:59;23.23;;;4.63;;
5137;SDS011;53959;53.626;11.410;2023-02-01T00:33:25;15.23;;;2.90;;
5137;SDS011;53959;53.626;11.410;2023-02-01T00:35:51;28.37;;;4.10;;
5137;SDS011;53959;53.626;11.410;2023-02-01T00:38:21;22.00;;;3.83;;
5137;SDS011;53959;53.626;11.410;2023-02-01T00:40:46;18.10;;;3.27;;
5137;SDS011;53959;53.626;11.410;2023-02-01T00:43:12;32.13;;;3.47;;
5137;SDS011;53959;53.626;11.410;2023-02-01T00:45:37;22.97;;;5.30;;
5137;SDS011;53959;53.626;11.410;2023-02-01T00:48:02;43.57;;;4.03;;
5137;SDS011;53959;53.626;11.410;2023-02-01T00:50:28;24.00;;;3.70;;
5137;SDS011;53959;53.626;11.410;2023-02-01T00:52:53;38.43;;;4.40;;
5137;SDS011;53959;53.626;11.410;2023-02-01T00:55:19;26.70;;;4.43;;
5137;SDS011;53959;53.626;11.410;2023-02-01T00:57:44;16.97;;;4.00;;
5137;SDS011;53959;53.626;11.410;2023-02-01T01:00:09;31.17;;;4.63;;
5137;SDS011;53959;53.626;11.410;2023-02-01T01:02:35;21.20;;;3.70;;
5137;SDS011;53959;53.626;11.410;2023-02-01T01:05:01;20.23;;;2.97;;
5137;SDS011;53959;53.626;11.410;2023-02-01T01:07:27;24.17;;;3.33;;
5137;SDS011;53959;53.626;11.410;2023-02-01T01:09:52;30.03;;;4.00;;
5137;SDS011;53959;53.626;11.410;2023-02-01T01:12:18;28.30;;;3.83;;
5137;SDS011;53959;53.626;11.410;2023-02-01T01:14:44;27.53;;;4.20;;
5137;SDS011;53959;53.626;11.410;2023-02-01T01:17:10;27.03;;;4.33;;
5137;SDS011;53959;53.626;11.410;2023-02-01T01:19:36;39.07;;;4.40;;
5137;SDS011;53959;53.626;11.410;2023-02-01T01:22:01;33.50;;;3.90;;
5137;SDS011;53959;53.626;11.410;2023-02-01T01:24:26;26.90;;;3.07;;
5137;SDS011;53959;53.626;11.410;2023-02-01T01:26:52;21.93;;;3.80;;
5137;SDS011;53959;53.626;11.410;2023-02-01T01:29:17;21.43;;;2.83;;
5137;SDS011;53959;53.626;11.410;2023-02-01T01:31:42;29.30;;;2.90;;
5137;SDS011;53959;53.626;11.410;2023-02-01T01:34:08;36.40;;;3.87;;
5137;SDS011;53959;53.626;11.410;2023-02-01T01:36:33;17.60;;;2.67;;
5137;SDS011;53959;53.626;11.410;2023-02-01T01:38:59;25.83;;;3.93;;
5137;SDS011;53959;53.626;11.410;2023-02-01T01:41:25;22.13;;;3.93;;
5137;SDS011;53959;53.626;11.410;2023-02-01T01:43:56;29.77;;;6.17;;
5137;SDS011;53959;53.626;11.410;2023-02-01T01:46:25;34.80;;;5.13;;
5137;SDS011;53959;53.626;11.410;2023-02-01T01:48:57;29.43;;;3.70;;
5137;SDS011;53959;53.626;11.410;2023-02-01T01:51:26;35.77;;;4.13;;
5137;SDS011;53959;53.626;11.410;2023-02-01T01:53:55;30.20;;;4.50;;
5137;SDS011;53959;53.626;11.410;2023-02-01T01:56:25;24.73;;;4.23;;
5137;SDS011;53959;53.626;11.410;2023-02-01T01:58:52;28.93;;;3.57;;
5137;SDS011;53959;53.626;11.410;2023-02-01T02:01:18;36.73;;;4.30;;
5137;SDS011;53959;53.626;11.410;2023-02-01T02:03:44;24.57;;;4.27;;
5137;SDS011;53959;53.626;11.410;2023-02-01T02:06:20;24.27;;;4.00;;
5137;SDS011;53959;53.626;11.410;2023-02-01T02:08:52;32.90;;;5.23;;
5137;SDS011;53959;53.626;11.410;2023-02-01T02:11:17;24.60;;;4.57;;
5137;SDS011;53959;53.626;11.410;2023-02-01T02:13:44;29.87;;;3.87;;
5137;SDS011;53959;53.626;11.410;2023-02-01T02:16:20;36.30;;;5.80;;
5137;SDS011;53959;53.626;11.410;2023-02-01T02:30:41;38.07;;;5.80;;
5137;SDS011;53959;53.626;11.410;2023-02-01T02:33:34;27.70;;;4.47;;
5137;SDS011;53959;53.626;11.410;2023-02-01T02:36:26;27.27;;;5.17;;
5137;SDS011;53959;53.626;11.410;2023-02-01T02:41:46;34.53;;;5.57;;
5137;SDS011;53959;53.626;11.410;2023-02-01T02:44:46;38.87;;;5.47;;
5137;SDS011;53959;53.626;11.410;2023-02-01T02:47:56;39.43;;;5.03;;
5137;SDS011;53959;53.626;11.410;2023-02-01T02:56:50;23.40;;;4.80;;
5137;SDS011;53959;53.626;11.410;2023-02-01T03:00:00;41.93;;;6.27;;
5137;SDS011;53959;53.626;11.410;2023-02-01T03:02:46;43.97;;;5.90;;
5137;SDS011;53959;53.626;11.410;2023-02-01T03:05:32;26.17;;;5.60;;
5137;SDS011;53959;53.626;11.410;2023-02-01T03:08:08;45.53;;;5.77;;
5137;SDS011;53959;53.626;11.410;2023-02-01T03:10:44;27.47;;;6.27;;
5137;SDS011;53959;53.626;11.410;2023-02-01T03:13:16;40.30;;;6.20;;
5137;SDS011;53959;53.626;11.410;2023-02-01T03:15:53;37.07;;;4.70;;
5137;SDS011;53959;53.626;11.410;2023-02-01T03:20:58;30.17;;;5.20;;
5137;SDS011;53959;53.626;11.410;2023-02-01T03:23:27;38.00;;;4.47;;
5137;SDS011;53959;53.626;11.410;2023-02-01T03:25:53;32.13;;;4.70;;
5137;SDS011;53959;53.626;11.410;2023-02-01T03:28:20;41.97;;;4.90;;
5137;SDS011;53959;53.626;11.410;2023-02-01T03:30:48;25.47;;;5.10;;
5137;SDS011;53959;53.626;11.410;2023-02-01T03:33:19;37.60;;;5.63;;
5137;SDS011;53959;53.626;11.410;2023-02-01T03:35:51;45.60;;;5.40;;
5137;SDS011;53959;53.626;11.410;2023-02-01T03:38:32;40.20;;;6.60;;
5137;SDS011;53959;53.626;11.410;2023-02-01T03:41:03;24.60;;;4.33;;
5137;SDS011;53959;53.626;11.410;2023-02-01T03:43:39;38.63;;;6.40;;
5137;SDS011;53959;53.626;11.410;2023-02-01T03:46:12;41.07;;;7.10;;
5137;SDS011;53959;53.626;11.410;2023-02-01T03:48:43;41.03;;;5.93;;
5137;SDS011;53959;53.626;11.410;2023-02-01T03:51:10;55.63;;;5.80;;
5137;SDS011;53959;53.626;11.410;2023-02-01T03:53:36;35.23;;;5.10;;
5137;SDS011;53959;53.626;11.410;2023-02-01T03:56:02;34.47;;;5.00;;
5137;SDS011;53959;53.626;11.410;2023-02-01T03:58:28;27.37;;;4.73;;
5137;SDS011;53959;53.626;11.410;2023-02-01T04:00:54;34.67;;;4.77;;
5137;SDS011;53959;53.626;11.410;2023-02-01T04:03:21;39.07;;;4.70;;
5137;SDS011;53959;53.626;11.410;2023-02-01T04:05:50;38.43;;;5.13;;
5137;SDS011;53959;53.626;11.410;2023-02-01T04:08:17;38.90;;;4.97;;
5137;SDS011;53959;53.626;11.410;2023-02-01T04:10:43;27.17;;;4.47;;
5137;SDS011;53959;53.626;11.410;2023-02-01T04:13:09;35.70;;;6.00;;
5137;SDS011;53959;53.626;11.410;2023-02-01T04:15:34;31.20;;;4.87;;
5137;SDS011;53959;53.626;11.410;2023-02-01T04:18:00;17.30;;;3.20;;
5137;SDS011;53959;53.626;11.410;2023-02-01T04:20:26;23.33;;;2.63;;
5137;SDS011;53959;53.626;11.410;2023-02-01T04:22:51;12.07;;;3.07;;
5137;SDS011;53959;53.626;11.410;2023-02-01T04:25:16;12.83;;;2.60;;
5137;SDS011;53959;53.626;11.410;2023-02-01T04:27:45;8.60;;;2.23;;
5137;SDS011;53959;53.626;11.410;2023-02-01T04:30:11;11.27;;;2.43;;
5137;SDS011;53959;53.626;11.410;2023-02-01T04:32:37;14.63;;;2.10;;
5137;SDS011;53959;53.626;11.410;2023-02-01T04:35:03;19.13;;;2.87;;
5137;SDS011;53959;53.626;11.410;2023-02-01T04:37:29;24.40;;;2.67;;
5137;SDS011;53959;53.626;11.410;2023-02-01T04:39:54;18.47;;;2.40;;
5137;SDS011;53959;53.626;11.410;2023-02-01T04:42:20;8.03;;;1.90;;
5137;SDS011;53959;53.626;11.410;2023-02-01T04:44:46;13.97;;;2.70;;
5137;SDS011;53959;53.626;11.410;2023-02-01T04:47:11;12.63;;;2.03;;
5137;SDS011;53959;53.626;11.410;2023-02-01T04:49:36;8.10;;;1.90;;
5137;SDS011;53959;53.626;11.410;2023-02-01T04:52:02;11.13;;;2.50;;
5137;SDS011;53959;53.626;11.410;2023-02-01T04:54:27;16.87;;;2.30;;
5137;SDS011;53959;53.626;11.410;2023-02-01T04:56:52;12.27;;;1.87;;
5137;SDS011;53959;53.626;11.410;2023-02-01T04:59:18;12.30;;;1.90;;
5137;SDS011;53959;53.626;11.410;2023-02-01T05:01:43;5.13;;;1.37;;
5137;SDS011;53959;53.626;11.410;2023-02-01T05:04:09;6.20;;;1.87;;
5137;SDS011;53959;53.626;11.410;2023-02-01T05:06:34;15.17;;;2.00;;
5137;SDS011;53959;53.626;11.410;2023-02-01T05:08:59;12.77;;;2.20;;
5137;SDS011;53959;53.626;11.410;2023-02-01T05:11:25;11.33;;;2.60;;
5137;SDS011;53959;53.626;11.410;2023-02-01T05:14:09;14.03;;;1.90;;
5137;SDS011;53959;53.626;11.410;2023-02-01T05:16:34;11.03;;;1.97;;
5137;SDS011;53959;53.626;11.410;2023-02-01T05:19:00;9.83;;;1.57;;
5137;SDS011;53959;53.626;11.410;2023-02-01T05:21:25;9.83;;;1.40;;
5137;SDS011;53959;53.626;11.410;2023-02-01T05:23:50;16.83;;;2.00;;
5137;SDS011;53959;53.626;11.410;2023-02-01T05:26:34;9.80;;;2.20;;
5137;SDS011;53959;53.626;11.410;2023-02-01T05:29:00;4.80;;;1.77;;
5137;SDS011;53959;53.626;11.410;2023-02-01T05:31:25;5.43;;;2.00;;
5137;SDS011;53959;53.626;11.410;2023-02-01T05:33:51;8.10;;;1.30;;
5137;SDS011;53959;53.626;11.410;2023-02-01T05:36:16;11.00;;;1.73;;
5137;SDS011;53959;53.626;11.410;2023-02-01T05:38:41;6.40;;;1.50;;
5137;SDS011;53959;53.626;11.410;2023-02-01T05:41:07;11.87;;;1.70;;
5137;SDS011;53959;53.626;11.410;2023-02-01T05:43:32;0.30;;;0.30;;
5137;SDS011;53959;53.626;11.410;2023-02-01T05:45:58;0.30;;;0.30;;
5137;SDS011;53959;53.626;11.410;2023-02-01T05:48:23;0.60;;;0.57;;
5137;SDS011;53959;53.626;11.410;2023-02-01T05:50:49;13.93;;;2.03;;
5137;SDS011;53959;53.626;11.410;2023-02-01T05:53:14;9.23;;;1.10;;
5137;SDS011;53959;53.626;11.410;2023-02-01T05:55:40;5.33;;;1.60;;
5137;SDS011;53959;53.626;11.410;2023-02-01T05:58:06;10.50;;;1.77;;
5137;SDS011;53959;53.626;11.410;2023-02-01T06:00:32;5.83;;;1.40;;
5137;SDS011;53959;53.626;11.410;2023-02-01T06:02:57;3.53;;;1.50;;
5137;SDS011;53959;53.626;11.410;2023-02-01T06:05:22;5.77;;;1.53;;
5137;SDS011;53959;53.626;11.410;2023-02-01T06:07:48;8.87;;;1.50;;
5137;SDS011;53959;53.626;11.410;2023-02-01T06:10:15;5.50;;;1.20;;
5137;SDS011;53959;53.626;11.410;2023-02-01T06:12:43;6.33;;;1.40;;
5137;SDS011;53959;53.626;11.410;2023-02-01T06:15:10;4.17;;;0.90;;
5137;SDS011;53959;53.626;11.410;2023-02-01T06:17:36;7.60;;;1.50;;
5137;SDS011;53959;53.626;11.410;2023-02-01T06:20:02;2.93;;;0.73;;
5137;SDS011;53959;53.626;11.410;2023-02-01T06:22:28;9.83;;;1.60;;
5137;SDS011;53959;53.626;11.410;2023-02-01T06:24:54;3.87;;;1.30;;
5137;SDS011;53959;53.626;11.410;2023-02-01T06:27:19;8.50;;;1.90;;
5137;SDS011;53959;53.626;11.410;2023-02-01T06:29:44;7.90;;;1.57;;
5137;SDS011;53959;53.626;11.410;2023-02-01T06:32:10;4.03;;;1.17;;
5137;SDS011;53959;53.626;11.410;2023-02-01T06:34:35;12.67;;;1.43;;
5137;SDS011;53959;53.626;11.410;2023-02-01T06:37:02;3.20;;;1.20;;
5137;SDS011;53959;53.626;11.410;2023-02-01T06:39:27;6.53;;;1.30;;
5137;SDS011;53959;53.626;11.410;2023-02-01T06:41:53;9.90;;;2.43;;
5137;SDS011;53959;53.626;11.410;2023-02-01T06:44:18;8.37;;;1.67;;
5137;SDS011;53959;53.626;11.410;2023-02-01T06:46:44;2.93;;;1.50;;
5137;SDS011;53959;53.626;11.410;2023-02-01T06:49:09;12.67;;;1.70;;
5137;SDS011;53959;53.626;11.410;2023-02-01T06:51:35;3.80;;;2.17;;
5137;SDS011;53959;53.626;11.410;2023-02-01T06:54:00;16.13;;;2.83;;
5137;SDS011;53959;53.626;11.410;2023-02-01T06:56:26;3.90;;;1.83;;
5137;SDS011;53959;53.626;11.410;2023-02-01T06:58:51;4.93;;;1.83;;
5137;SDS011;53959;53.626;11.410;2023-02-01T07:01:17;6.63;;;1.93;;
5137;SDS011;53959;53.626;11.410;2023-02-01T07:03:46;5.90;;;1.80;;
5137;SDS011;53959;53.626;11.410;2023-02-01T07:06:12;9.53;;;1.97;;
5137;SDS011;53959;53.626;11.410;2023-02-01T07:08:37;5.63;;;1.90;;
5137;SDS011;53959;53.626;11.410;2023-02-01T07:11:07;8.53;;;2.07;;
5137;SDS011;53959;53.626;11.410;2023-02-01T07:13:34;7.20;;;2.33;;
5137;SDS011;53959;53.626;11.410;2023-02-01T07:16:00;7.73;;;1.67;;
5137;SDS011;53959;53.626;11.410;2023-02-01T07:18:27;5.30;;;1.30;;
5137;SDS011;53959;53.626;11.410;2023-02-01T07:20:53;4.97;;;1.40;;
5137;SDS011;53959;53.626;11.410;2023-02-01T07:23:18;3.83;;;1.27;;
5137;SDS011;53959;53.626;11.410;2023-02-01T07:25:45;3.00;;;1.50;;
5137;SDS011;53959;53.626;11.410;2023-02-01T07:28:11;3.53;;;1.47;;
5137;SDS011;53959;53.626;11.410;2023-02-01T07:30:36;7.97;;;1.60;;
5137;SDS011;53959;53.626;11.410;2023-02-01T07:33:01;1.33;;;1.23;;
5137;SDS011;53959;53.626;11.410;2023-02-01T07:35:27;2.30;;;1.50;;
5137;SDS011;53959;53.626;11.410;2023-02-01T07:37:53;1.60;;;1.33;;
5137;SDS011;53959;53.626;11.410;2023-02-01T07:40:18;2.17;;;1.20;;
5137;SDS011;53959;53.626;11.410;2023-02-01T07:42:48;2.27;;;1.50;;
5137;SDS011;53959;53.626;11.410;2023-02-01T07:45:13;2.30;;;1.33;;
5137;SDS011;53959;53.626;11.410;2023-02-01T07:47:40;2.00;;;1.63;;
5137;SDS011;53959;53.626;11.410;2023-02-01T07:50:05;1.87;;;1.17;;
5137;SDS011;53959;53.626;11.410;2023-02-01T07:52:31;10.00;;;2.07;;
5137;SDS011;53959;53.626;11.410;2023-02-01T07:54:56;1.60;;;1.50;;
5137;SDS011;53959;53.626;11.410;2023-02-01T07:57:22;3.90;;;1.47;;
5137;SDS011;53959;53.626;11.410;2023-02-01T07:59:47;7.30;;;1.60;;
5137;SDS011;53959;53.626;11.410;2023-02-01T08:02:37;4.23;;;1.40;;
5137;SDS011;53959;53.626;11.410;2023-02-01T08:05:03;5.03;;;2.40;;
5137;SDS011;53959;53.626;11.410;2023-02-01T08:07:30;6.23;;;1.83;;
5137;SDS011;53959;53.626;11.410;2023-02-01T08:09:55;4.23;;;2.30;;
5137;SDS011;53959;53.626;11.410;2023-02-01T08:12:21;7.50;;;2.20;;
5137;SDS011;53959;53.626;11.410;2023-02-01T08:14:46;8.57;;;3.13;;
5137;SDS011;53959;53.626;11.410;2023-02-01T08:17:12;4.60;;;1.70;;
5137;SDS011;53959;53.626;11.410;2023-02-01T08:19:37;5.83;;;2.03;;
5137;SDS011;53959;53.626;11.410;2023-02-01T08:22:02;5.93;;;1.87;;
5137;SDS011;53959;53.626;11.410;2023-02-01T08:24:32;7.50;;;2.00;;
5137;SDS011;53959;53.626;11.410;2023-02-01T08:26:58;6.50;;;2.80;;
5137;SDS011;53959;53.626;11.410;2023-02-01T08:29:23;8.13;;;2.40;;
5137;SDS011;53959;53.626;11.410;2023-02-01T08:31:49;4.50;;;2.57;;
5137;SDS011;53959;53.626;11.410;2023-02-01T08:34:15;3.33;;;2.57;;
5137;SDS011;53959;53.626;11.410;2023-02-01T08:36:41;16.07;;;2.80;;
5137;SDS011;53959;53.626;11.410;2023-02-01T08:39:06;19.40;;;3.10;;
5137;SDS011;53959;53.626;11.410;2023-02-01T08:41:34;16.23;;;2.57;;
5137;SDS011;53959;53.626;11.410;2023-02-01T08:43:59;7.70;;;3.00;;
5137;SDS011;53959;53.626;11.410;2023-02-01T08:46:25;14.23;;;2.60;;
5137;SDS011;53959;53.626;11.410;2023-02-01T08:48:51;7.33;;;2.30;;
5137;SDS011;53959;53.626;11.410;2023-02-01T08:51:17;11.60;;;2.40;;
5137;SDS011;53959;53.626;11.410;2023-02-01T08:53:44;12.63;;;2.37;;
5137;SDS011;53959;53.626;11.410;2023-02-01T08:56:11;10.63;;;2.37;;
5137;SDS011;53959;53.626;11.410;2023-02-01T08:58:37;6.70;;;2.30;;
5137;SDS011;53959;53.626;11.410;2023-02-01T09:01:06;10.00;;;2.30;;
5137;SDS011;53959;53.626;11.410;2023-02-01T09:03:33;14.10;;;2.27;;
5137;SDS011;53959;53.626;11.410;2023-02-01T09:06:16;11.33;;;2.20;;
5137;SDS011;53959;53.626;11.410;2023-02-01T09:08:42;22.83;;;2.97;;
5137;SDS011;53959;53.626;11.410;2023-02-01T09:11:10;23.07;;;3.50;;
5137;SDS011;53959;53.626;11.410;2023-02-01T09:13:38;24.67;;;3.67;;
5137;SDS011;53959;53.626;11.410;2023-02-01T09:16:03;20.03;;;3.77;;
5137;SDS011;53959;53.626;11.410;2023-02-01T09:18:29;24.97;;;3.53;;
5137;SDS011;53959;53.626;11.410;2023-02-01T09:20:54;32.33;;;3.80;;
5137;SDS011;53959;53.626;11.410;2023-02-01T09:23:19;15.97;;;3.07;;
5137;SDS011;53959;53.626;11.410;2023-02-01T09:25:45;20.77;;;2.83;;
5137;SDS011;53959;53.626;11.410;2023-02-01T09:28:11;17.10;;;3.47;;
5137;SDS011;53959;53.626;11.410;2023-02-01T09:30:36;18.63;;;2.83;;
5137;SDS011;53959;53.626;11.410;2023-02-01T09:33:02;29.40;;;3.60;;
5137;SDS011;53959;53.626;11.410;2023-02-01T09:35:28;24.63;;;3.97;;
5137;SDS011;53959;53.626;11.410;2023-02-01T09:37:53;33.53;;;4.53;;
5137;SDS011;53959;53.626;11.410;2023-02-01T09:40:19;23.53;;;3.80;;
5137;SDS011;53959;53.626;11.410;2023-02-01T09:42:57;28.00;;;3.40;;
5137;SDS011;53959;53.626;11.410;2023-02-01T09:45:49;39.77;;;5.00;;
5137;SDS011;53959;53.626;11.410;2023-02-01T09:48:15;35.43;;;4.17;;
5137;SDS011;53959;53.626;11.410;2023-02-01T09:50:48;34.70;;;3.73;;
5137;SDS011;53959;53.626;11.410;2023-02-01T09:55:50;17.83;;;4.07;;
5137;SDS011;53959;53.626;11.410;2023-02-01T09:58:20;19.33;;;3.97;;
5137;SDS011;53959;53.626;11.410;2023-02-01T10:00:53;28.23;;;4.93;;
5137;SDS011;53959;53.626;11.410;2023-02-01T10:03:19;27.03;;;3.77;;
5137;SDS011;53959;53.626;11.410;2023-02-01T10:14:59;10.07;;;1.57;;
5137;SDS011;53959;53.626;11.410;2023-02-01T10:20:22;14.43;;;1.50;;
5137;SDS011;53959;53.626;11.410;2023-02-01T10:25:44;9.93;;;1.33;;
5137;SDS011;53959;53.626;11.410;2023-02-01T10:28:19;9.97;;;1.73;;
5137;SDS011;53959;53.626;11.410;2023-02-01T10:30:47;8.67;;;1.20;;
5137;SDS011;53959;53.626;11.410;2023-02-01T10:33:17;8.93;;;1.70;;
5137;SDS011;53959;53.626;11.410;2023-02-01T10:35:44;11.23;;;2.33;;
5137;SDS011;53959;53.626;11.410;2023-02-01T10:38:17;9.00;;;2.23;;
5137;SDS011;53959;53.626;11.410;2023-02-01T10:40:50;13.50;;;2.83;;
5137;SDS011;53959;53.626;11.410;2023-02-01T10:43:17;20.00;;;1.63;;
5137;SDS011;53959;53.626;11.410;2023-02-01T10:45:42;12.20;;;1.83;;
5137;SDS011;53959;53.626;11.410;2023-02-01T10:48:08;23.10;;;2.23;;
5137;SDS011;53959;53.626;11.410;2023-02-01T10:53:18;13.33;;;2.63;;
5137;SDS011;53959;53.626;11.410;2023-02-01T10:58:18;16.93;;;3.13;;
5137;SDS011;53959;53.626;11.410;2023-02-01T11:00:46;19.17;;;2.23;;
5137;SDS011;53959;53.626;11.410;2023-02-01T11:03:51;18.40;;;3.50;;
5137;SDS011;53959;53.626;11.410;2023-02-01T11:08:50;16.13;;;2.67;;
5137;SDS011;53959;53.626;11.410;2023-02-01T11:11:17;21.87;;;3.50;;
5137;SDS011;53959;53.626;11.410;2023-02-01T11:13:44;18.37;;;2.97;;
5137;SDS011;53959;53.626;11.410;2023-02-01T11:16:11;16.17;;;3.07;;
5137;SDS011;53959;53.626;11.410;2023-02-01T11:18:39;19.00;;;3.63;;
5137;SDS011;53959;53.626;11.410;2023-02-01T11:21:05;19.77;;;2.50;;
5137;SDS011;53959;53.626;11.410;2023-02-01T11:23:31;12.10;;;3.00;;
5137;SDS011;53959;53.626;11.410;2023-02-01T11:26:07;22.00;;;3.67;;
5137;SDS011;53959;53.626;11.410;2023-02-01T11:28:37;18.40;;;3.87;;
5137;SDS011;53959;53.626;11.410;2023-02-01T11:31:07;10.17;;;3.00;;
5137;SDS011;53959;53.626;11.410;2023-02-01T11:33:35;21.97;;;3.50;;
5137;SDS011;53959;53.626;11.410;2023-02-01T11:36:06;12.60;;;3.30;;
5137;SDS011;53959;53.626;11.410;2023-02-01T11:38:33;18.00;;;2.60;;
5137;SDS011;53959;53.626;11.410;2023-02-01T11:41:18;14.87;;;3.00;;
5137;SDS011;53959;53.626;11.410;2023-02-01T11:44:00;43.00;;;4.20;;
5137;SDS011;53959;53.626;11.410;2023-02-01T11:46:31;15.43;;;3.13;;
5137;SDS011;53959;53.626;11.410;2023-02-01T11:49:13;28.50;;;4.27;;
5137;SDS011;53959;53.626;11.410;2023-02-01T11:51:50;31.83;;;3.77;;
5137;SDS011;53959;53.626;11.410;2023-02-01T11:54:35;22.30;;;3.73;;
5137;SDS011;53959;53.626;11.410;2023-02-01T12:00:02;13.40;;;3.03;;
5137;SDS011;53959;53.626;11.410;2023-02-01T12:07:52;9.13;;;1.77;;
5137;SDS011;53959;53.626;11.410;2023-02-01T12:10:47;14.83;;;2.20;;
5137;SDS011;53959;53.626;11.410;2023-02-01T12:13:35;16.60;;;2.87;;
5137;SDS011;53959;53.626;11.410;2023-02-01T12:16:43;19.63;;;2.50;;
5137;SDS011;53959;53.626;11.410;2023-02-01T12:19:15;16.50;;;2.67;;
5137;SDS011;53959;53.626;11.410;2023-02-01T12:21:52;7.80;;;2.30;;
5137;SDS011;53959;53.626;11.410;2023-02-01T12:24:41;9.47;;;3.97;;
5137;SDS011;53959;53.626;11.410;2023-02-01T12:35:54;9.47;;;1.10;;
5137;SDS011;53959;53.626;11.410;2023-02-01T12:44:12;5.40;;;1.60;;
5137;SDS011;53959;53.626;11.410;2023-02-01T12:46:46;7.50;;;2.23;;
5137;SDS011;53959;53.626;11.410;2023-02-01T12:49:19;10.30;;;1.60;;
5137;SDS011;53959;53.626;11.410;2023-02-01T12:51:54;7.93;;;1.87;;
5137;SDS011;53959;53.626;11.410;2023-02-01T12:54:31;10.33;;;2.20;;
5137;SDS011;53959;53.626;11.410;2023-02-01T12:57:01;15.17;;;2.30;;
5137;SDS011;53959;53.626;11.410;2023-02-01T12:59:44;19.13;;;2.50;;
5137;SDS011;53959;53.626;11.410;2023-02-01T13:03:36;7.93;;;2.23;;
5137;SDS011;53959;53.626;11.410;2023-02-01T13:05:53;28.47;;;4.00;;
5137;SDS011;53959;53.626;11.410;2023-02-01T13:08:25;23.83;;;4.10;;
5137;SDS011;53959;53.626;11.410;2023-02-01T13:10:58;22.40;;;3.60;;
5137;SDS011;53959;53.626;11.410;2023-02-01T13:13:32;16.03;;;3.63;;
5137;SDS011;53959;53.626;11.410;2023-02-01T13:16:14;25.33;;;4.00;;
5137;SDS011;53959;53.626;11.410;2023-02-01T13:18:43;33.10;;;4.80;;
5137;SDS011;53959;53.626;11.410;2023-02-01T13:21:16;22.50;;;4.50;;
5137;SDS011;53959;53.626;11.410;2023-02-01T13:23:45;25.57;;;4.07;;
5137;SDS011;53959;53.626;11.410;2023-02-01T13:26:11;17.37;;;3.70;;
5137;SDS011;53959;53.626;11.410;2023-02-01T13:31:19;19.97;;;3.60;;
5137;SDS011;53959;53.626;11.410;2023-02-01T13:33:55;14.73;;;3.53;;
5137;SDS011;53959;53.626;11.410;2023-02-01T13:39:33;13.30;;;3.27;;
5137;SDS011;53959;53.626;11.410;2023-02-01T13:42:21;15.23;;;2.23;;
5137;SDS011;53959;53.626;11.410;2023-02-01T13:44:49;6.93;;;1.47;;
5137;SDS011;53959;53.626;11.410;2023-02-01T13:47:23;9.37;;;1.80;;
5137;SDS011;53959;53.626;11.410;2023-02-01T13:49:57;4.80;;;1.00;;
5137;SDS011;53959;53.626;11.410;2023-02-01T13:52:36;6.83;;;1.47;;
5137;SDS011;53959;53.626;11.410;2023-02-01T13:55:25;1.43;;;0.70;;
5137;SDS011;53959;53.626;11.410;2023-02-01T13:58:04;4.93;;;1.43;;
5137;SDS011;53959;53.626;11.410;2023-02-01T14:21:13;5.80;;;1.20;;
5137;SDS011;53959;53.626;11.410;2023-02-01T14:23:57;4.00;;;1.30;;
5137;SDS011;53959;53.626;11.410;2023-02-01T14:31:48;2.47;;;1.33;;
5137;SDS011;53959;53.626;11.410;2023-02-01T14:42:27;0.60;;;0.57;;
5137;SDS011;53959;53.626;11.410;2023-02-01T14:44:56;1.33;;;0.50;;
5137;SDS011;53959;53.626;11.410;2023-02-01T14:47:50;0.60;;;0.50;;
5137;SDS011;53959;53.626;11.410;2023-02-01T14:58:47;0.57;;;0.57;;
5137;SDS011;53959;53.626;11.410;2023-02-01T15:01:30;6.27;;;0.70;;
5137;SDS011;53959;53.626;11.410;2023-02-01T15:06:33;1.53;;;0.53;;
5137;SDS011;53959;53.626;11.410;2023-02-01T15:09:07;2.50;;;1.00;;
5137;SDS011;53959;53.626;11.410;2023-02-01T15:11:53;5.63;;;1.07;;
5137;SDS011;53959;53.626;11.410;2023-02-01T15:14:18;2.20;;;1.13;;
5137;SDS011;53959;53.626;11.410;2023-02-01T15:16:44;1.60;;;0.90;;
5137;SDS011;53959;53.626;11.410;2023-02-01T15:19:14;17.90;;;1.20;;
5137;SDS011;53959;53.626;11.410;2023-02-01T15:21:44;14.30;;;1.30;;
5137;SDS011;53959;53.626;11.410;2023-02-01T15:24:12;3.50;;;1.13;;
5137;SDS011;53959;53.626;11.410;2023-02-01T15:26:39;3.53;;;1.13;;
5137;SDS011;53959;53.626;11.410;2023-02-01T15:29:05;2.30;;;1.07;;
5137;SDS011;53959;53.626;11.410;2023-02-01T15:31:35;9.37;;;1.50;;
5137;SDS011;53959;53.626;11.410;2023-02-01T15:34:01;1.80;;;1.07;;
5137;SDS011;53959;53.626;11.410;2023-02-01T15:36:27;2.37;;;1.10;;
5137;SDS011;53959;53.626;11.410;2023-02-01T15:41:47;4.97;;;0.90;;
5137;SDS011;53959;53.626;11.410;2023-02-01T15:44:18;5.70;;;1.13;;
5137;SDS011;53959;53.626;11.410;2023-02-01T15:47:12;13.47;;;1.47;;
5137;SDS011;53959;53.626;11.410;2023-02-01T15:49:46;4.47;;;1.40;;
5137;SDS011;53959;53.626;11.410;2023-02-01T15:52:16;6.13;;;1.30;;
5137;SDS011;53959;53.626;11.410;2023-02-01T15:54:50;11.73;;;2.10;;
5137;SDS011;53959;53.626;11.410;2023-02-01T15:57:27;8.53;;;1.37;;
5137;SDS011;53959;53.626;11.410;2023-02-01T15:59:57;12.80;;;2.00;;
5137;SDS011;53959;53.626;11.410;2023-02-01T16:02:25;7.07;;;1.40;;
5137;SDS011;53959;53.626;11.410;2023-02-01T16:04:51;15.90;;;1.97;;
5137;SDS011;53959;53.626;11.410;2023-02-01T16:07:24;6.97;;;2.07;;
5137;SDS011;53959;53.626;11.410;2023-02-01T16:09:55;12.13;;;1.90;;
5137;SDS011;53959;53.626;11.410;2023-02-01T16:15:22;27.80;;;3.10;;
5137;SDS011;53959;53.626;11.410;2023-02-01T16:17:48;24.23;;;3.10;;
5137;SDS011;53959;53.626;11.410;2023-02-01T16:20:13;27.67;;;2.57;;
5137;SDS011;53959;53.626;11.410;2023-02-01T16:22:39;11.30;;;2.50;;
5137;SDS011;53959;53.626;11.410;2023-02-01T16:25:04;22.87;;;2.63;;
5137;SDS011;53959;53.626;11.410;2023-02-01T16:27:30;12.53;;;2.07;;
5137;SDS011;53959;53.626;11.410;2023-02-01T16:29:55;15.77;;;2.80;;
5137;SDS011;53959;53.626;11.410;2023-02-01T16:32:21;8.40;;;2.60;;
5137;SDS011;53959;53.626;11.410;2023-02-01T16:34:47;32.93;;;2.70;;
5137;SDS011;53959;53.626;11.410;2023-02-01T16:37:14;20.57;;;2.50;;
5137;SDS011;53959;53.626;11.410;2023-02-01T16:39:43;12.97;;;2.20;;
5137;SDS011;53959;53.626;11.410;2023-02-01T16:42:10;10.87;;;3.00;;
5137;SDS011;53959;53.626;11.410;2023-02-01T16:44:39;22.53;;;2.97;;
5137;SDS011;53959;53.626;11.410;2023-02-01T16:47:12;19.10;;;2.77;;
5137;SDS011;53959;53.626;11.410;2023-02-01T16:49:41;20.60;;;3.50;;
5137;SDS011;53959;53.626;11.410;2023-02-01T16:52:11;22.87;;;2.90;;
5137;SDS011;53959;53.626;11.410;2023-02-01T16:54:38;30.17;;;4.33;;
5137;SDS011;53959;53.626;11.410;2023-02-01T16:57:04;15.80;;;2.73;;
5137;SDS011;53959;53.626;11.410;2023-02-01T16:59:29;15.77;;;3.10;;
5137;SDS011;53959;53.626;11.410;2023-02-01T17:01:55;17.23;;;3.20;;
5137;SDS011;53959;53.626;11.410;2023-02-01T17:04:20;16.10;;;3.20;;